Time;durP1;ratioP1;P1;durP2;ratioP2;P2;SDS_P1;SDS_P2;PMS_P1;PMS_P2;Temp;Humidity;BMP_temperature;BMP_pressure;BME280_temperature;BME280_humidity;BME280_pressure;Samples;Min_cycle;Max_cycle;Signal;HPM_P1;HPM_P2
2022/09/09 00:00:40;;;;;;;10.77;8.38;;;;;;;19.24;58.48;95670.50;5024869;28;20476;-80
2022/09/09 00:03:14;;;;;;;18.85;8.98;;;;;;;19.23;59.43;95674.25;5008035;28;20416;-79
2022/09/09 00:05:48;;;;;;;11.48;8.38;;;;;;;19.22;58.81;95663.59;4992063;28;20475;-79
2022/09/09 00:08:22;;;;;;;11.27;8.73;;;;;;;19.13;59.09;95663.94;5024824;28;20060;-79
2022/09/09 00:10:54;;;;;;;12.38;9.25;;;;;;;19.10;59.69;95664.34;4991697;28;20080;-79
2022/09/09 00:13:34;;;;;;;9.85;8.18;;;;;;;19.19;59.68;95672.22;5009077;28;20034;-80
2022/09/09 00:16:36;;;;;;;11.02;8.55;;;;;;;19.06;59.25;95668.56;4992329;28;20195;-79
2022/09/09 00:19:21;;;;;;;10.07;8.50;;;;;;;19.04;59.28;95659.78;4990286;28;20094;-78
2022/09/09 00:21:52;;;;;;;10.35;8.82;;;;;;;19.00;59.96;95654.00;5010315;28;20033;-79
2022/09/09 00:24:40;;;;;;;12.95;8.98;;;;;;;18.96;60.00;95639.19;5025462;28;20029;-79
2022/09/09 00:27:08;;;;;;;12.25;9.00;;;;;;;18.87;60.17;95638.66;5025876;28;20040;-79
2022/09/09 00:29:47;;;;;;;10.73;8.90;;;;;;;18.87;60.08;95637.81;5008090;28;20047;-79
2022/09/09 00:32:16;;;;;;;11.63;8.63;;;;;;;18.95;59.78;95634.81;5025266;28;20032;-79
2022/09/09 00:35:15;;;;;;;15.40;9.55;;;;;;;18.94;59.84;95632.31;5023880;28;20029;-79
2022/09/09 00:37:41;;;;;;;10.10;8.00;;;;;;;18.85;60.06;95629.88;5024226;28;20072;-79
2022/09/09 00:40:31;;;;;;;12.65;8.60;;;;;;;18.81;60.39;95631.41;5007888;28;20531;-78
2022/09/09 00:43:26;;;;;;;12.98;8.32;;;;;;;18.82;60.46;95630.34;5020402;28;20134;-79
2022/09/09 00:45:55;;;;;;;11.13;8.48;;;;;;;18.86;60.55;95636.97;5023334;28;20032;-79
2022/09/09 00:48:20;;;;;;;11.98;8.50;;;;;;;18.85;60.28;95640.75;5025442;28;20148;-79
2022/09/09 00:51:01;;;;;;;12.15;9.23;;;;;;;18.85;60.51;95642.63;5006561;28;20048;-79
2022/09/09 00:53:51;;;;;;;13.15;9.15;;;;;;;18.81;60.81;95633.28;5007742;28;20029;-79
2022/09/09 00:56:21;;;;;;;10.85;9.27;;;;;;;18.76;61.15;95640.22;5007364;28;20029;-79
2022/09/09 00:59:04;;;;;;;13.13;10.18;;;;;;;18.68;61.21;95634.25;5007191;28;20060;-79
2022/09/09 01:01:29;;;;;;;12.57;9.27;;;;;;;18.74;60.84;95634.19;5025588;28;20033;-79
2022/09/09 01:03:55;;;;;;;12.15;9.02;;;;;;;18.69;60.98;95638.59;5024604;28;20029;-79
2022/09/09 01:06:24;;;;;;;12.35;9.38;;;;;;;18.67;60.81;95636.13;5007577;28;20488;-79
2022/09/09 01:09:07;;;;;;;11.27;8.63;;;;;;;18.63;60.69;95635.75;5024915;28;20037;-79
2022/09/09 01:11:52;;;;;;;11.15;8.95;;;;;;;18.65;60.67;95635.53;5023285;28;20049;-78
2022/09/09 01:14:25;;;;;;;10.02;8.98;;;;;;;18.68;60.07;95645.94;5023736;28;20072;-78
2022/09/09 01:16:51;;;;;;;;;;;;;;;18.64;60.27;95645.56;5024717;28;20069;-79
2022/09/09 01:19:39;;;;;;;12.95;9.35;;;;;;;18.56;60.55;95640.41;5024024;28;20002;-79
2022/09/09 01:22:20;;;;;;;9.93;8.65;;;;;;;18.58;60.58;95640.19;5023471;28;20419;-79
2022/09/09 01:25:28;;;;;;;11.20;9.27;;;;;;;18.56;60.54;95643.13;5023198;28;20031;-78
2022/09/09 01:27:58;;;;;;;11.68;8.95;;;;;;;18.46;60.67;95640.09;5024888;28;20026;-78
2022/09/09 01:30:24;;;;;;;9.98;8.98;;;;;;;18.44;61.28;95639.47;5023640;28;20025;-79
2022/09/09 01:32:51;;;;;;;12.57;8.60;;;;;;;18.46;59.83;95642.81;5006878;28;20026;-78
2022/09/09 01:35:42;;;;;;;9.48;8.48;;;;;;;18.46;59.56;95653.66;5006864;28;20032;-78
2022/09/09 01:38:07;;;;;;;10.70;8.50;;;;;;;18.37;59.64;95650.38;5007099;28;20045;-78
2022/09/09 01:40:33;;;;;;;10.38;8.75;;;;;;;18.33;60.16;95654.59;5023580;28;20508;-77
2022/09/09 01:42:58;;;;;;;13.27;8.95;;;;;;;18.28;60.40;95656.06;5006363;28;20037;-79
2022/09/09 01:45:24;;;;;;;10.02;9.02;;;;;;;18.29;60.57;95659.63;5007059;28;20029;-78
2022/09/09 01:47:50;;;;;;;8.88;7.97;;;;;;;18.24;60.21;95660.31;5007033;28;20029;-78
2022/09/09 01:50:16;;;;;;;10.05;8.18;;;;;;;18.21;60.45;95663.47;5006872;28;20053;-79
2022/09/09 01:52:41;;;;;;;11.10;8.63;;;;;;;18.21;60.47;95662.63;5007245;28;20162;-78
2022/09/09 01:55:07;;;;;;;10.30;8.23;;;;;;;18.16;60.30;95666.84;5006234;28;20029;-78
2022/09/09 01:57:54;;;;;;;9.98;8.57;;;;;;;18.15;60.42;95665.16;5023618;28;20028;-78
2022/09/09 02:00:20;;;;;;;12.85;8.63;;;;;;;18.08;60.21;95658.06;5024527;28;20037;-79
2022/09/09 02:03:00;;;;;;;13.07;8.95;;;;;;;18.11;60.68;95646.78;5023519;28;20028;-78
2022/09/09 02:05:49;;;;;;;11.82;9.00;;;;;;;18.03;60.52;95646.00;5026865;28;20525;-79
2022/09/09 02:08:26;;;;;;;12.15;9.63;;;;;;;18.04;60.60;95641.38;5026457;28;20018;-78
2022/09/09 02:11:11;;;;;;;12.63;9.27;;;;;;;18.04;60.22;95639.53;4996094;28;20025;-78
2022/09/09 02:13:37;;;;;;;11.90;9.05;;;;;;;17.89;61.34;95639.81;5026975;28;20025;-79
2022/09/09 02:16:07;;;;;;;11.23;9.10;;;;;;;17.86;61.37;95642.97;5026757;28;20149;-78
2022/09/09 02:18:42;;;;;;;14.52;9.07;;;;;;;17.94;61.09;95650.03;5010562;28;20034;-79
2022/09/09 02:21:08;;;;;;;12.05;8.85;;;;;;;17.94;61.26;95638.34;5026348;28;20049;-78
2022/09/09 02:23:33;;;;;;;12.73;9.70;;;;;;;17.90;60.54;95644.22;5010559;28;20025;-78
2022/09/09 02:25:59;;;;;;;10.88;9.25;;;;;;;17.87;60.74;95644.66;5010162;28;20021;-79
2022/09/09 02:28:25;;;;;;;13.13;8.52;;;;;;;17.82;60.95;95649.88;5026803;28;20025;-78
2022/09/09 02:30:54;;;;;;;13.02;8.95;;;;;;;17.80;60.59;95649.28;5010239;28;20018;-79
2022/09/09 02:33:27;;;;;;;11.65;8.45;;;;;;;17.81;61.09;95650.94;5026393;28;20398;-78
2022/09/09 02:35:52;;;;;;;12.77;8.93;;;;;;;17.77;61.07;95660.56;5010790;28;20044;-78
2022/09/09 02:38:18;;;;;;;12.98;8.77;;;;;;;17.78;60.51;95656.81;5009468;28;20030;-78
2022/09/09 02:40:43;;;;;;;11.20;9.02;;;;;;;17.70;61.44;95663.28;5010072;28;20036;-78
2022/09/09 02:43:08;;;;;;;15.10;9.23;;;;;;;17.75;61.43;95660.78;5027448;28;20022;-78
2022/09/09 02:45:43;;;;;;;10.75;8.95;;;;;;;17.73;61.04;95656.63;5027646;28;20040;-78
2022/09/09 02:48:20;;;;;;;9.40;8.45;;;;;;;17.74;60.08;95653.69;5009999;28;20026;-79
2022/09/09 02:51:21;;;;;;;9.75;8.25;;;;;;;17.74;60.27;95658.28;5010277;28;20504;-79
2022/09/09 02:53:55;;;;;;;14.43;10.07;;;;;;;17.71;60.30;95664.13;5026206;28;20033;-79
2022/09/09 02:56:21;;;;;;;10.35;9.10;;;;;;;17.70;60.89;95657.06;5009889;28;20042;-79
2022/09/09 02:58:47;;;;;;;11.27;9.00;;;;;;;17.74;60.21;95658.28;5010004;28;20064;-79
2022/09/09 03:01:13;;;;;;;15.50;9.68;;;;;;;17.71;60.66;95654.13;4993315;28;20013;-79
2022/09/09 03:03:41;;;;;;;10.27;9.27;;;;;;;17.75;60.31;95658.06;5026004;28;20022;-79
2022/09/09 03:06:06;;;;;;;10.25;9.20;;;;;;;17.73;60.62;95660.19;5026192;28;20025;-79
2022/09/09 03:08:32;;;;;;;10.63;9.07;;;;;;;17.72;60.22;95663.06;5026961;28;20033;-79
2022/09/09 03:11:03;;;;;;;11.35;9.13;;;;;;;17.72;60.00;95658.50;5027214;28;20029;-80
2022/09/09 03:13:28;;;;;;;10.95;9.32;;;;;;;17.67;60.87;95659.16;5026521;28;20021;-79
2022/09/09 03:15:54;;;;;;;12.43;9.10;;;;;;;17.66;61.09;95665.63;5009115;28;20474;-80
2022/09/09 03:18:19;;;;;;;11.02;8.90;;;;;;;17.72;60.27;95663.06;5008862;28;20449;-79
2022/09/09 03:20:46;;;;;;;11.57;9.55;;;;;;;17.68;60.38;95649.13;5009279;28;20017;-80
2022/09/09 03:23:13;;;;;;;13.57;9.05;;;;;;;17.64;60.19;95651.44;5009085;28;20401;-78
2022/09/09 03:25:39;;;;;;;11.35;9.82;;;;;;;17.55;61.00;95653.56;5026707;28;20025;-78
2022/09/09 03:28:04;;;;;;;11.38;8.85;;;;;;;17.51;61.25;95662.34;5008944;28;20488;-78
2022/09/09 03:30:30;;;;;;;11.00;9.82;;;;;;;17.46;61.73;95656.75;5026811;28;20032;-80
2022/09/09 03:32:56;;;;;;;12.70;10.43;;;;;;;17.39;61.67;95657.63;5009556;28;20037;-78
2022/09/09 03:35:21;;;;;;;15.70;9.65;;;;;;;17.41;62.16;95644.66;5024788;28;20216;-79
2022/09/09 03:37:47;;;;;;;11.18;9.38;;;;;;;17.40;61.87;95653.84;5025796;28;20524;-79
2022/09/09 03:40:12;;;;;;;12.80;9.95;;;;;;;17.36;62.00;95652.59;5025309;28;20026;-79
2022/09/09 03:42:38;;;;;;;13.95;9.88;;;;;;;17.42;62.05;95651.78;5025352;28;20499;-79
2022/09/09 03:45:05;;;;;;;14.85;10.05;;;;;;;17.46;61.38;95663.00;5026414;28;20029;-79
2022/09/09 03:47:31;;;;;;;12.82;9.82;;;;;;;17.45;61.11;95658.63;5008806;28;20052;-79
2022/09/09 03:49:56;;;;;;;10.73;8.90;;;;;;;17.38;61.14;95655.94;5025689;28;20488;-79
2022/09/09 03:52:24;;;;;;;16.55;9.73;;;;;;;17.38;61.54;95655.94;5025602;28;20026;-79
2022/09/09 03:54:51;;;;;;;13.52;10.07;;;;;;;17.40;61.58;95653.00;5026298;28;20021;-79
2022/09/09 03:57:16;;;;;;;11.98;9.93;;;;;;;17.35;61.36;95660.94;5024705;28;20099;-79
2022/09/09 03:59:43;;;;;;;14.82;9.75;;;;;;;17.34;61.73;95665.56;5025300;28;20100;-80
2022/09/09 04:02:08;;;;;;;16.35;9.45;;;;;;;17.41;61.52;95666.34;5008198;28;20175;-79
2022/09/09 04:04:34;;;;;;;11.60;9.40;;;;;;;17.46;61.32;95665.72;5008724;28;20580;-79
2022/09/09 04:06:59;;;;;;;16.38;9.20;;;;;;;17.38;61.10;95665.94;5024539;28;20495;-79
2022/09/09 04:09:25;;;;;;;15.02;9.48;;;;;;;17.33;62.05;95658.44;5008216;28;20025;-79
2022/09/09 04:11:50;;;;;;;18.90;9.23;;;;;;;17.29;61.87;95651.81;5008221;28;20429;-79
2022/09/09 04:14:16;;;;;;;12.70;9.20;;;;;;;17.26;62.42;95655.78;5024353;28;20076;-79
2022/09/09 04:16:44;;;;;;;14.35;9.32;;;;;;;17.28;61.77;95647.44;5026161;28;20045;-79
2022/09/09 04:19:12;;;;;;;16.35;10.00;;;;;;;17.27;62.06;95653.91;5023925;28;20021;-79
2022/09/09 04:21:39;;;;;;;14.98;9.23;;;;;;;17.32;62.23;95655.97;5009005;28;20029;-80
2022/09/09 04:24:05;;;;;;;16.25;10.15;;;;;;;17.36;62.04;95668.88;5025320;28;20109;-80
2022/09/09 04:26:30;;;;;;;17.65;10.48;;;;;;;17.39;61.63;95668.47;5023631;28;20044;-79
2022/09/09 04:28:56;;;;;;;15.32;9.43;;;;;;;17.37;61.66;95665.13;5007773;28;20504;-79
2022/09/09 04:31:23;;;;;;;12.20;8.98;;;;;;;17.33;61.72;95663.88;5025305;28;20520;-79
2022/09/09 04:33:49;;;;;;;16.77;9.75;;;;;;;17.36;61.44;95662.63;5008078;28;20055;-79
2022/09/09 04:36:15;;;;;;;13.32;9.60;;;;;;;17.37;61.50;95659.72;5023568;28;20105;-79
2022/09/09 04:38:40;;;;;;;16.02;9.50;;;;;;;17.41;61.56;95671.78;5024791;28;20030;-79
2022/09/09 04:41:07;;;;;;;13.30;9.75;;;;;;;17.39;61.81;95668.47;5023467;28;20029;-80
2022/09/09 04:43:32;;;;;;;15.77;11.57;;;;;;;17.42;61.46;95668.03;5025728;28;20033;-80
2022/09/09 04:45:59;;;;;;;12.55;9.68;;;;;;;17.48;61.68;95671.75;5023603;28;20048;-80
2022/09/09 04:48:25;;;;;;;15.82;10.68;;;;;;;17.55;61.04;95658.97;5007610;28;20033;-79
2022/09/09 04:51:01;;;;;;;11.85;9.30;;;;;;;17.58;61.09;95649.59;5024087;28;20017;-80
2022/09/09 04:53:26;;;;;;;14.60;10.27;;;;;;;17.60;61.43;95652.09;4990871;28;20484;-79
2022/09/09 04:56:13;;;;;;;15.57;11.75;;;;;;;17.59;61.72;95651.25;5024084;28;20033;-79
2022/09/09 04:58:39;;;;;;;18.48;10.82;;;;;;;17.68;61.96;95665.41;5023387;28;20124;-79
2022/09/09 05:01:04;;;;;;;11.65;9.80;;;;;;;17.81;61.15;95669.09;5007454;28;20102;-80
2022/09/09 05:03:30;;;;;;;14.75;10.60;;;;;;;17.85;60.78;95665.72;5024890;28;20039;-80
2022/09/09 05:06:04;;;;;;;22.63;11.80;;;;;;;17.90;61.27;95663.19;5023236;28;20014;-79
2022/09/09 05:08:30;;;;;;;17.90;10.85;;;;;;;17.99;60.98;95655.63;5023730;28;20079;-79
2022/09/09 05:10:55;;;;;;;14.85;10.10;;;;;;;18.03;61.02;95656.03;5024228;28;20022;-79
2022/09/09 05:13:21;;;;;;;14.70;10.85;;;;;;;18.02;61.33;95659.78;5024043;28;20095;-79
2022/09/09 05:15:53;;;;;;;17.63;10.45;;;;;;;18.13;60.81;95669.16;5024222;28;20064;-80
2022/09/09 05:18:18;;;;;;;17.30;10.25;;;;;;;18.26;60.65;95662.78;5023429;28;20021;-80
2022/09/09 05:20:44;;;;;;;14.73;9.85;;;;;;;18.38;60.05;95654.75;5023097;28;20412;-80
2022/09/09 05:23:13;;;;;;;14.77;10.27;;;;;;;18.56;60.22;95648.53;5022771;28;20025;-79
2022/09/09 05:25:38;;;;;;;16.88;10.57;;;;;;;18.73;60.01;95648.00;5025072;28;20026;-80
2022/09/09 05:28:04;;;;;;;18.02;10.38;;;;;;;18.85;59.33;95645.34;5022424;28;20400;-79
2022/09/09 05:30:30;;;;;;;15.73;10.70;;;;;;;18.91;58.64;95655.31;5023911;28;20022;-81
2022/09/09 05:32:56;;;;;;;16.65;10.48;;;;;;;18.96;59.10;95654.66;5022816;28;20143;-80
2022/09/09 05:35:22;;;;;;;14.73;10.48;;;;;;;19.08;58.87;95649.31;5024572;28;20683;-80
2022/09/09 05:37:48;;;;;;;14.82;9.85;;;;;;;19.23;58.59;95646.25;5026251;28;20037;-82
2022/09/09 05:40:14;;;;;;;13.93;10.18;;;;;;;19.37;58.24;95649.63;5028362;28;20025;-79
2022/09/09 05:42:40;;;;;;;11.32;9.63;;;;;;;19.42;57.81;95651.66;5027037;28;20017;-79
2022/09/09 05:45:07;;;;;;;11.93;9.15;;;;;;;19.57;57.02;95645.84;5027742;28;20092;-79
2022/09/09 05:47:33;;;;;;;26.50;10.27;;;;;;;19.76;56.72;95654.81;5027116;28;20468;-80
2022/09/09 05:49:58;;;;;;;17.65;10.13;;;;;;;19.85;56.80;95650.69;5009852;28;20030;-80
2022/09/09 05:52:25;;;;;;;28.23;10.18;;;;;;;19.90;55.79;95650.00;5028415;28;20041;-80
2022/09/09 05:54:51;;;;;;;22.80;9.55;;;;;;;19.99;55.74;95653.25;5028065;28;20421;-79
2022/09/09 05:57:17;;;;;;;16.88;9.45;;;;;;;20.11;55.32;95656.84;5010256;28;20064;-80
2022/09/09 05:59:42;;;;;;;23.45;9.55;;;;;;;20.21;55.19;95655.44;5010125;28;20613;-80
2022/09/09 06:02:09;;;;;;;20.48;9.10;;;;;;;20.22;54.72;95663.38;5028040;28;20028;-79
2022/09/09 06:04:35;;;;;;;13.73;9.27;;;;;;;20.27;54.87;95668.13;5028275;28;20025;-79
2022/09/09 06:07:00;;;;;;;15.18;9.20;;;;;;;20.40;54.13;95658.94;5026192;28;20426;-79
2022/09/09 06:09:26;;;;;;;17.77;9.25;;;;;;;20.39;54.40;95662.72;5026802;28;20036;-80
2022/09/09 06:11:51;;;;;;;14.65;9.60;;;;;;;20.46;54.10;95646.25;5026247;28;20022;-80
2022/09/09 06:14:17;;;;;;;15.85;9.13;;;;;;;20.63;53.92;95663.56;5026735;28;20378;-80
2022/09/09 06:16:43;;;;;;;16.48;9.68;;;;;;;20.69;53.46;95659.06;5026173;28;20057;-80
2022/09/09 06:19:09;;;;;;;15.57;9.95;;;;;;;20.85;53.51;95659.44;5009916;28;20125;-79
2022/09/09 06:21:38;;;;;;;15.10;9.18;;;;;;;21.03;53.77;95661.25;5026004;28;20022;-79
2022/09/09 06:24:04;;;;;;;10.88;8.77;;;;;;;21.15;54.02;95663.94;5009963;28;20031;-79
2022/09/09 06:26:31;;;;;;;15.95;8.57;;;;;;;21.28;53.49;95665.59;5027674;28;20021;-80
2022/09/09 06:28:57;;;;;;;17.33;8.45;;;;;;;21.36;51.93;95662.50;5009513;28;20064;-79
2022/09/09 06:31:25;;;;;;;13.02;8.18;;;;;;;21.47;52.88;95665.44;5010323;28;20029;-79
2022/09/09 06:33:51;;;;;;;11.13;8.05;;;;;;;21.60;50.82;95658.91;5009670;28;20032;-79
2022/09/09 06:36:22;;;;;;;17.55;8.48;;;;;;;21.61;50.69;95661.38;5026238;28;20029;-79
2022/09/09 06:38:47;;;;;;;11.50;8.30;;;;;;;21.55;50.63;95645.97;5009762;28;20036;-79
2022/09/09 06:41:14;;;;;;;16.73;9.15;;;;;;;21.63;51.11;95652.94;5027113;28;20116;-80
2022/09/09 06:43:39;;;;;;;14.95;8.98;;;;;;;21.64;50.66;95649.13;5025947;28;20079;-80
2022/09/09 06:46:12;;;;;;;16.23;8.52;;;;;;;21.77;49.46;95641.72;5025362;28;20021;-80
2022/09/09 06:48:40;;;;;;;11.30;7.75;;;;;;;21.70;49.56;95648.16;5027381;28;20061;-80
2022/09/09 06:51:07;;;;;;;12.75;7.20;;;;;;;21.79;49.48;95661.47;5026395;28;20088;-80
2022/09/09 06:53:33;;;;;;;8.45;6.85;;;;;;;21.93;48.75;95653.81;5027111;28;20037;-79
2022/09/09 06:56:17;;;;;;;9.88;7.53;;;;;;;21.80;48.74;95653.03;5009021;28;20460;-79
2022/09/09 06:58:43;;;;;;;9.40;6.95;;;;;;;21.95;48.34;95654.41;5026915;28;20060;-80
2022/09/09 07:01:10;;;;;;;13.75;7.07;;;;;;;22.02;48.94;95662.44;5027285;28;20049;-79
2022/09/09 07:03:35;;;;;;;9.07;6.93;;;;;;;22.00;48.90;95662.69;5008474;28;20029;-79
2022/09/09 07:06:01;;;;;;;9.70;6.68;;;;;;;21.99;48.63;95661.00;5026298;28;20493;-79
2022/09/09 07:08:26;;;;;;;8.65;6.57;;;;;;;22.20;47.69;95666.84;5025366;28;20030;-80
2022/09/09 07:10:55;;;;;;;11.20;6.90;;;;;;;22.24;47.65;95659.84;5027356;28;20018;-79
2022/09/09 07:13:27;;;;;;;11.35;7.35;;;;;;;22.28;48.54;95652.78;5025269;28;20034;-80
2022/09/09 07:15:52;;;;;;;9.63;7.00;;;;;;;22.39;48.63;95653.81;5025972;28;20050;-79
2022/09/09 07:18:18;;;;;;;12.85;7.60;;;;;;;22.50;47.73;95657.53;5009581;28;20033;-79
2022/09/09 07:20:53;;;;;;;11.85;7.65;;;;;;;22.64;47.31;95655.34;5026350;28;20021;-78
2022/09/09 07:23:18;;;;;;;12.38;7.00;;;;;;;22.80;47.09;95653.66;5026240;28;20044;-80
2022/09/09 07:25:47;;;;;;;8.25;6.82;;;;;;;22.85;45.83;95644.72;5024903;28;20392;-79
2022/09/09 07:28:13;;;;;;;10.50;7.20;;;;;;;23.01;46.48;95650.41;5027164;28;20197;-79
2022/09/09 07:30:39;;;;;;;11.85;6.30;;;;;;;22.91;45.56;95646.44;5024939;28;20028;-81
2022/09/09 07:33:05;;;;;;;13.68;7.00;;;;;;;22.86;46.03;95643.63;5025157;28;20021;-79
2022/09/09 07:35:30;;;;;;;10.25;6.07;;;;;;;22.91;46.29;95638.25;5025242;28;20110;-79
2022/09/09 07:37:57;;;;;;;12.57;7.07;;;;;;;22.96;45.55;95635.59;5025879;28;20170;-80
2022/09/09 07:40:22;;;;;;;9.32;6.68;;;;;;;23.23;45.54;95644.97;5027230;28;20390;-80
2022/09/09 07:42:48;;;;;;;9.23;6.15;;;;;;;23.41;46.49;95648.50;5025490;28;20032;-83
2022/09/09 07:45:14;;;;;;;11.40;6.78;;;;;;;23.40;45.45;95646.84;5009090;28;20025;-80
2022/09/09 07:47:41;;;;;;;8.13;6.07;;;;;;;23.52;45.04;95652.22;5024412;28;20026;-80
2022/09/09 07:50:06;;;;;;;9.43;6.00;;;;;;;23.64;45.15;95652.06;5024900;28;20121;-80
2022/09/09 07:52:33;;;;;;;8.20;6.65;;;;;;;23.51;45.71;95648.66;5008706;28;20033;-79
2022/09/09 07:54:59;;;;;;;10.48;6.18;;;;;;;23.65;45.78;95645.53;5024295;28;20033;-79
2022/09/09 07:57:25;;;;;;;10.95;6.28;;;;;;;23.29;44.83;95648.63;5026567;28;20037;-80
2022/09/09 07:59:51;;;;;;;12.73;6.85;;;;;;;23.41;45.48;95641.13;5024085;28;20022;-81
2022/09/09 08:02:17;;;;;;;11.43;6.88;;;;;;;23.54;45.44;95645.41;5024315;28;20495;-79
2022/09/09 08:04:42;;;;;;;10.15;6.55;;;;;;;23.43;45.04;95633.50;5024009;28;20041;-80
2022/09/09 08:07:08;;;;;;;11.43;6.20;;;;;;;23.63;44.86;95644.97;5025147;28;20511;-80
2022/09/09 08:09:34;;;;;;;10.35;6.30;;;;;;;23.75;45.19;95645.63;5024498;28;20033;-79
2022/09/09 08:12:01;;;;;;;8.23;5.88;;;;;;;23.88;44.82;95638.09;5007724;28;20030;-80
2022/09/09 08:14:26;;;;;;;10.85;5.85;;;;;;;23.99;43.79;95639.88;5025891;28;20038;-79
2022/09/09 08:16:54;;;;;;;9.13;5.57;;;;;;;24.05;43.85;95635.28;5023569;28;20479;-80
2022/09/09 08:19:19;;;;;;;10.00;5.70;;;;;;;24.12;43.48;95635.09;5024935;28;20886;-79
2022/09/09 08:21:45;;;;;;;11.75;6.30;;;;;;;24.15;43.80;95637.31;5023935;28;20032;-80
2022/09/09 08:24:10;;;;;;;11.82;6.18;;;;;;;23.80;43.62;95642.97;5008252;28;20024;-80
2022/09/09 08:26:41;;;;;;;11.57;6.07;;;;;;;23.71;44.33;95633.56;5007668;28;20053;-80
2022/09/09 08:29:07;;;;;;;11.27;6.00;;;;;;;23.69;43.50;95636.56;5024226;28;20105;-80
2022/09/09 08:31:39;;;;;;;13.80;6.78;;;;;;;23.79;44.01;95624.06;5008042;28;20026;-80
2022/09/09 08:34:05;;;;;;;9.70;6.35;;;;;;;23.93;44.28;95625.31;5024775;28;20025;-79
2022/09/09 08:36:36;;;;;;;10.75;5.85;;;;;;;23.87;45.00;95630.97;5024458;28;20033;-80
2022/09/09 08:39:02;;;;;;;9.68;6.13;;;;;;;23.91;45.18;95621.16;5007415;28;20037;-80
2022/09/09 08:41:58;;;;;;;8.63;6.25;;;;;;;24.11;43.57;95627.94;5025840;28;20051;-80
2022/09/09 08:44:42;;;;;;;7.07;6.03;;;;;;;24.06;44.37;95621.34;5007598;28;20124;-80
2022/09/09 08:47:31;;;;;;;8.05;6.07;;;;;;;24.18;44.63;95620.38;5024567;28;20037;-79
2022/09/09 08:50:46;;;;;;;8.43;6.68;;;;;;;24.01;43.64;95615.78;5024375;28;20022;-81
2022/09/09 08:53:21;;;;;;;10.05;6.20;;;;;;;24.12;43.71;95613.16;5024531;28;20041;-79
2022/09/09 08:55:59;;;;;;;12.63;6.88;;;;;;;24.37;43.81;95618.06;5023266;28;20030;-80
2022/09/09 08:58:31;;;;;;;7.60;5.75;;;;;;;24.50;43.83;95619.56;5008224;28;20554;-80
2022/09/09 09:01:09;;;;;;;10.63;5.95;;;;;;;24.50;44.15;95621.47;5023220;28;20040;-80
2022/09/09 09:03:54;;;;;;;12.18;6.25;;;;;;;24.68;42.74;95618.31;5025004;28;20025;-79
2022/09/09 09:06:35;;;;;;;10.75;6.38;;;;;;;24.74;44.02;95626.56;5024829;28;20022;-80
2022/09/09 09:09:06;;;;;;;9.45;6.30;;;;;;;24.72;43.60;95618.59;5024753;28;20108;-80
2022/09/09 09:11:38;;;;;;;8.93;6.30;;;;;;;24.42;42.98;95620.03;5008322;28;20087;-80
2022/09/09 09:14:07;;;;;;;;;;;;;;;24.14;44.22;95616.44;5023309;28;20033;-80
2022/09/09 09:16:36;;;;;;;10.93;6.32;;;;;;;24.38;45.15;95624.38;5023456;28;19917;-80
2022/09/09 09:19:01;;;;;;;8.88;6.40;;;;;;;24.61;45.13;95611.41;5024911;28;20026;-80
2022/09/09 09:21:47;;;;;;;6.72;5.95;;;;;;;24.79;43.28;95613.75;5006521;28;20026;-80
2022/09/09 09:24:19;;;;;;;6.97;5.60;;;;;;;24.98;43.58;95607.84;5025328;28;20030;-80
2022/09/09 09:26:46;;;;;;;8.43;6.37;;;;;;;24.74;43.28;95605.47;5023576;28;20028;-80
2022/09/09 09:29:14;;;;;;;8.50;5.50;;;;;;;24.63;44.11;95604.56;5023680;28;20457;-80
2022/09/09 09:31:43;;;;;;;12.20;6.20;;;;;;;24.52;43.86;95605.59;5007183;28;20151;-81
2022/09/09 09:34:11;;;;;;;10.95;6.22;;;;;;;24.31;44.64;95600.75;5023013;28;20025;-81
2022/09/09 09:36:42;;;;;;;11.00;6.35;;;;;;;24.75;43.98;95600.78;5025187;28;20494;-80
2022/09/09 09:39:09;;;;;;;8.77;5.85;;;;;;;24.98;43.97;95596.03;5006531;28;20029;-80
2022/09/09 09:41:38;;;;;;;19.50;6.82;;;;;;;25.16;43.25;95598.34;5023544;28;20459;-81
2022/09/09 09:44:04;;;;;;;6.90;5.97;;;;;;;25.11;43.28;95595.56;5022768;28;20026;-80
2022/09/09 09:46:30;;;;;;;8.48;6.05;;;;;;;25.03;43.72;95594.16;4990649;28;20028;-80
2022/09/09 09:49:03;;;;;;;14.52;6.45;;;;;;;25.05;44.95;95589.22;5023138;28;20101;-80
2022/09/09 09:51:29;;;;;;;13.15;5.85;;;;;;;25.01;43.18;95587.28;5022975;28;20022;-80
2022/09/09 09:54:01;;;;;;;12.75;6.28;;;;;;;24.92;42.91;95581.47;5006794;28;20095;-80
2022/09/09 09:56:28;;;;;;;8.70;5.75;;;;;;;24.87;43.18;95586.88;5006866;28;20049;-80
2022/09/09 09:58:54;;;;;;;9.73;6.00;;;;;;;24.86;43.16;95579.78;5007561;28;20504;-80
2022/09/09 10:01:33;;;;;;;8.65;5.97;;;;;;;24.83;43.42;95572.88;5022308;28;20036;-80
2022/09/09 10:04:23;;;;;;;7.55;6.22;;;;;;;25.01;44.04;95581.78;5007367;28;20021;-79
2022/09/09 10:06:49;;;;;;;15.20;6.43;;;;;;;24.83;43.45;95580.31;5023333;28;20317;-80
2022/09/09 10:09:21;;;;;;;8.27;6.20;;;;;;;24.69;43.19;95591.72;5006229;28;20028;-79
2022/09/09 10:11:55;;;;;;;12.32;6.78;;;;;;;24.51;44.32;95591.03;5025045;28;20159;-80
2022/09/09 10:14:35;;;;;;;9.55;6.50;;;;;;;24.36;44.10;95599.97;5006303;28;20382;-79
2022/09/09 10:17:27;;;;;;;13.05;6.45;;;;;;;24.39;45.40;95598.63;5023213;28;20042;-80
2022/09/09 10:20:24;;;;;;;10.27;7.60;;;;;;;24.46;44.92;95599.22;5020804;28;20052;-80
2022/09/09 10:23:16;;;;;;;7.85;6.30;;;;;;;24.53;46.33;95597.09;5022017;28;20139;-80
2022/09/09 10:26:06;;;;;;;10.55;6.85;;;;;;;24.62;45.41;95599.34;5025621;28;20505;-79
2022/09/09 10:28:50;;;;;;;10.68;7.05;;;;;;;24.57;45.58;95598.22;5027829;28;20098;-79
2022/09/09 10:31:45;;;;;;;11.25;6.28;;;;;;;24.25;45.83;95599.06;5027227;28;20447;-79
2022/09/09 10:34:32;;;;;;;12.20;6.38;;;;;;;24.13;46.27;95596.47;5026913;28;20030;-81
2022/09/09 10:36:58;;;;;;;8.90;6.47;;;;;;;24.01;46.95;95602.09;5027695;28;20415;-80
2022/09/09 10:39:37;;;;;;;11.55;6.72;;;;;;;23.89;47.06;95607.72;5009606;28;20512;-80
2022/09/09 10:42:09;;;;;;;9.48;7.15;;;;;;;23.71;47.33;95614.41;5026828;28;20029;-80
2022/09/09 10:44:40;;;;;;;10.77;7.50;;;;;;;23.74;47.31;95608.41;5009254;28;20034;-80
2022/09/09 10:47:20;;;;;;;9.50;7.07;;;;;;;23.62;47.56;95613.19;5027964;28;20187;-80
2022/09/09 10:50:08;;;;;;;12.00;6.53;;;;;;;23.63;47.84;95610.22;5027246;28;20508;-80
2022/09/09 10:52:55;;;;;;;9.77;7.55;;;;;;;23.55;48.60;95614.19;5026647;28;20037;-81
2022/09/09 10:55:25;;;;;;;9.95;7.50;;;;;;;23.53;48.29;95616.38;5026671;28;20025;-80
2022/09/09 10:57:52;;;;;;;10.45;6.30;;;;;;;23.72;47.98;95610.56;5026598;28;20056;-80
2022/09/09 11:00:22;;;;;;;14.73;6.93;;;;;;;23.60;48.50;95612.63;5009890;28;20048;-80
2022/09/09 11:02:59;;;;;;;11.02;7.45;;;;;;;23.59;48.47;95606.31;5009268;28;20100;-81
2022/09/09 11:05:44;;;;;;;10.57;6.88;;;;;;;23.62;48.79;95591.31;5025362;28;20113;-79
2022/09/09 11:08:21;;;;;;;15.65;8.95;;;;;;;23.72;48.03;95602.34;5026244;28;20029;-79
2022/09/09 11:11:10;;;;;;;15.60;8.63;;;;;;;23.76;48.51;95592.56;5008805;28;20021;-80
2022/09/09 11:13:51;;;;;;;14.55;7.80;;;;;;;23.73;48.58;95590.31;5026143;28;20044;-81
2022/09/09 11:16:38;;;;;;;8.85;7.20;;;;;;;23.64;48.44;95591.84;5025485;28;20076;-80
2022/09/09 11:19:15;;;;;;;10.07;7.10;;;;;;;23.54;48.96;95590.66;5026290;28;20036;-80
2022/09/09 11:21:44;;;;;;;10.45;7.28;;;;;;;23.68;48.75;95579.31;5026961;28;20044;-79
2022/09/09 11:24:13;;;;;;;13.60;7.35;;;;;;;23.73;48.67;95573.88;4992519;28;20124;-79
2022/09/09 11:26:47;;;;;;;9.88;7.03;;;;;;;23.79;48.48;95575.59;5009020;28;20071;-80
2022/09/09 11:29:22;;;;;;;9.73;7.00;;;;;;;23.97;48.01;95573.59;5010214;28;20040;-80
2022/09/09 11:32:08;;;;;;;9.38;7.07;;;;;;;23.90;47.97;95571.06;5025732;28;20160;-79
2022/09/09 11:34:45;;;;;;;9.80;7.95;;;;;;;24.06;47.77;95561.06;5025623;28;20424;-79
2022/09/09 11:37:39;;;;;;;16.95;6.97;;;;;;;24.14;47.92;95548.78;5027594;28;20488;-80
2022/09/09 11:40:17;;;;;;;8.90;7.45;;;;;;;24.06;48.18;95547.38;5024418;28;20522;-78
2022/09/09 11:42:42;;;;;;;13.57;7.40;;;;;;;24.01;48.17;95527.31;4993918;28;20034;-80
2022/09/09 11:45:29;;;;;;;9.65;7.28;;;;;;;24.06;48.26;95530.94;5007628;28;20083;-79